createdAt,value
2023-05-12T00:00:11.111Z,65.99
2023-05-12T00:01:10.808Z,66.20
2023-05-12T00:02:11.049Z,66.28
2023-05-12T00:03:11.052Z,66.13
2023-05-12T00:04:11.105Z,65.99
2023-05-12T00:05:11.006Z,66.21
2023-05-12T00:06:11.089Z,66.35
2023-05-12T00:07:11.212Z,66.33
2023-05-12T00:08:11.253Z,66.29
2023-05-12T00:09:11.312Z,66.32
2023-05-12T00:10:11.349Z,66.04
2023-05-12T00:11:11.454Z,66.41
2023-05-12T00:12:11.542Z,66.66
2023-05-12T00:13:11.569Z,66.26
2023-05-12T00:14:11.622Z,66.52
2023-05-12T00:15:11.702Z,66.55
2023-05-12T00:16:11.770Z,66.77
2023-05-12T00:17:11.852Z,66.44
2023-05-12T00:18:11.898Z,66.51
2023-05-12T00:19:11.954Z,66.72
2023-05-12T00:20:11.998Z,66.71
2023-05-12T00:21:12.118Z,66.79
2023-05-12T00:22:12.025Z,66.41
2023-05-12T00:23:12.063Z,66.27
2023-05-12T00:24:12.178Z,66.43
2023-05-12T00:25:12.236Z,66.35
2023-05-12T00:26:12.596Z,66.37
2023-05-12T00:27:12.416Z,66.17
2023-05-12T00:28:12.495Z,66.03
2023-05-12T00:29:12.613Z,65.89
2023-05-12T00:30:12.684Z,66.06
2023-05-12T00:31:12.841Z,65.98
2023-05-12T00:32:12.820Z,66.07
2023-05-12T00:33:12.873Z,66.07
2023-05-12T00:34:12.924Z,66.28
2023-05-12T00:35:12.937Z,66.37
2023-05-12T00:36:13.134Z,66.32
2023-05-12T00:37:13.067Z,66.12
2023-05-12T00:38:13.173Z,66.33
2023-05-12T00:39:13.207Z,66.45
2023-05-12T00:40:13.240Z,66.51
2023-05-12T00:41:13.633Z,66.41
2023-05-12T00:42:13.361Z,66.26
2023-05-12T00:43:13.427Z,66.29
2023-05-12T00:44:13.492Z,66.20
2023-05-12T00:45:13.573Z,66.36
2023-05-12T00:46:13.671Z,66.34
2023-05-12T00:47:13.683Z,66.34
2023-05-12T00:48:13.750Z,66.41
2023-05-12T00:49:13.765Z,66.44
2023-05-12T00:50:13.812Z,66.39
2023-05-12T00:51:13.895Z,66.31
2023-05-12T00:52:13.887Z,66.00
2023-05-12T00:53:13.911Z,65.93
2023-05-12T00:54:13.990Z,65.92
2023-05-12T00:55:14.627Z,65.99
2023-05-12T00:56:14.038Z,66.05
2023-05-12T00:57:14.053Z,65.65
2023-05-12T00:58:14.110Z,65.75
2023-05-12T00:59:14.161Z,65.74
2023-05-12T01:00:14.189Z,65.92
2023-05-12T01:01:14.675Z,66.26
2023-05-12T01:02:14.285Z,66.38
2023-05-12T01:03:14.429Z,66.31
2023-05-12T01:04:14.364Z,66.23
2023-05-12T01:05:14.370Z,66.08
2023-05-12T01:06:14.434Z,66.19
2023-05-12T01:07:14.432Z,66.29
2023-05-12T01:08:14.480Z,66.04
2023-05-12T01:09:14.482Z,65.96
2023-05-12T01:10:14.551Z,65.83
2023-05-12T01:11:14.632Z,65.65
2023-05-12T01:12:14.557Z,65.65
2023-05-12T01:13:14.592Z,65.25
2023-05-12T01:14:14.605Z,65.21
2023-05-12T01:15:14.632Z,65.04
2023-05-12T01:16:14.649Z,65.10
2023-05-12T01:17:14.705Z,64.88
2023-05-12T01:18:14.674Z,64.81
2023-05-12T01:19:14.807Z,64.84
2023-05-12T01:20:14.754Z,64.50
2023-05-12T01:21:15.105Z,64.62
2023-05-12T01:22:14.825Z,64.60
2023-05-12T01:23:14.952Z,64.51
2023-05-12T01:24:15.046Z,64.57
2023-05-12T01:25:15.074Z,64.75
2023-05-12T01:26:15.116Z,64.61
2023-05-12T01:27:15.137Z,64.59
2023-05-12T01:28:15.170Z,64.57
2023-05-12T01:29:15.195Z,64.52
2023-05-12T01:30:15.292Z,64.41
2023-05-12T01:31:15.652Z,64.43
2023-05-12T01:32:15.356Z,64.31
2023-05-12T01:33:15.394Z,64.50
2023-05-12T01:34:15.486Z,64.65
2023-05-12T01:35:15.488Z,64.75
2023-05-12T01:36:15.530Z,64.91
2023-05-12T01:37:15.562Z,64.99
2023-05-12T01:38:15.639Z,65.06
2023-05-12T01:39:15.751Z,65.01
2023-05-12T01:40:15.844Z,65.14
2023-05-12T01:41:15.938Z,65.04
2023-05-12T01:42:15.973Z,65.30
2023-05-12T01:43:15.941Z,65.27
2023-05-12T01:44:15.964Z,65.17
2023-05-12T01:45:15.924Z,65.11
2023-05-12T01:46:16.241Z,65.02
2023-05-12T01:47:16.132Z,64.74
2023-05-12T01:48:15.982Z,64.61
2023-05-12T01:49:15.990Z,64.88
2023-05-12T01:50:16.010Z,65.00
2023-05-12T01:51:16.042Z,65.02
2023-05-12T01:52:16.052Z,64.66
2023-05-12T01:53:16.069Z,64.69
2023-05-12T01:54:16.098Z,64.88
2023-05-12T01:55:16.103Z,65.04
2023-05-12T01:56:16.139Z,65.44
2023-05-12T01:57:16.175Z,65.34
2023-05-12T01:58:16.172Z,65.36
2023-05-12T01:59:16.177Z,65.57
2023-05-12T02:00:16.179Z,65.48
2023-05-12T02:01:16.180Z,65.58
2023-05-12T02:02:16.244Z,65.53
2023-05-12T02:03:16.227Z,65.63
2023-05-12T02:04:16.361Z,65.47
2023-05-12T02:05:16.154Z,65.27
2023-05-12T02:06:16.157Z,65.38
2023-05-12T02:07:16.130Z,65.41
2023-05-12T02:08:16.133Z,65.27
2023-05-12T02:09:16.160Z,64.98
2023-05-12T02:10:16.191Z,65.10
2023-05-12T02:11:16.158Z,64.95
2023-05-12T02:12:16.234Z,64.72
2023-05-12T02:13:16.264Z,64.51
2023-05-12T02:14:16.296Z,64.68
2023-05-12T02:15:16.384Z,64.73
2023-05-12T02:16:16.686Z,64.43
2023-05-12T02:17:16.405Z,64.23
2023-05-12T02:18:16.494Z,64.59
2023-05-12T02:19:16.565Z,64.61
2023-05-12T02:20:16.650Z,64.72
2023-05-12T02:21:16.645Z,64.62
2023-05-12T02:22:16.684Z,64.34
2023-05-12T02:23:16.680Z,64.27
2023-05-12T02:24:16.821Z,64.23
2023-05-12T02:25:16.745Z,63.98
2023-05-12T02:26:16.740Z,63.88
2023-05-12T02:27:16.719Z,64.10
2023-05-12T02:28:16.757Z,64.13
2023-05-12T02:29:16.788Z,64.14
2023-05-12T02:30:16.801Z,64.29
2023-05-12T02:31:17.112Z,64.52
2023-05-12T02:32:16.808Z,64.71
2023-05-12T02:33:16.840Z,64.36
2023-05-12T02:34:16.848Z,64.39
2023-05-12T02:35:16.854Z,64.72
2023-05-12T02:36:17.143Z,64.84
2023-05-12T02:37:16.881Z,64.79
2023-05-12T02:38:16.955Z,64.72
2023-05-12T02:39:16.933Z,64.65
2023-05-12T02:40:17.022Z,64.66
2023-05-12T02:41:17.020Z,64.77
2023-05-12T02:42:17.006Z,64.76
2023-05-12T02:43:17.017Z,64.79
2023-05-12T02:44:17.023Z,64.80
2023-05-12T02:45:17.022Z,64.72
2023-05-12T02:46:17.079Z,64.59
2023-05-12T02:47:17.012Z,64.49
2023-05-12T02:48:17.061Z,64.55
2023-05-12T02:49:17.047Z,64.73
2023-05-12T02:50:17.101Z,65.12
2023-05-12T02:51:17.047Z,65.19
2023-05-12T02:52:17.038Z,65.44
2023-05-12T02:53:17.075Z,65.36
2023-05-12T02:54:17.079Z,65.18
2023-05-12T02:55:17.073Z,65.26
2023-05-12T02:56:17.053Z,65.25
2023-05-12T02:57:17.072Z,65.34
2023-05-12T02:58:17.049Z,65.06
2023-05-12T02:59:17.066Z,65.01
2023-05-12T03:00:17.118Z,64.97
2023-05-12T03:01:17.102Z,64.74
2023-05-12T03:02:17.097Z,64.78
2023-05-12T03:03:17.132Z,65.02
2023-05-12T03:04:17.088Z,64.77
2023-05-12T03:05:17.089Z,65.02
2023-05-12T03:06:17.228Z,64.96
2023-05-12T03:07:17.147Z,64.90
2023-05-12T03:08:17.077Z,65.26
2023-05-12T03:09:17.096Z,64.85
2023-05-12T03:10:17.161Z,64.91
2023-05-12T03:11:17.085Z,64.78
2023-05-12T03:12:17.143Z,64.71
2023-05-12T03:13:17.101Z,64.69
2023-05-12T03:14:17.140Z,64.62
2023-05-12T03:15:17.148Z,64.69
2023-05-12T03:16:18.914Z,64.38
2023-05-12T03:17:17.714Z,64.30
2023-05-12T03:18:17.249Z,64.13
2023-05-12T03:19:17.223Z,63.89
2023-05-12T03:20:17.284Z,63.64
2023-05-12T03:21:17.222Z,63.78
2023-05-12T03:22:17.667Z,64.16
2023-05-12T03:23:17.236Z,63.84
2023-05-12T03:24:17.269Z,63.81
2023-05-12T03:25:17.343Z,63.90
2023-05-12T03:26:17.257Z,63.64
2023-05-12T03:27:17.232Z,63.96
2023-05-12T03:28:17.280Z,64.01
2023-05-12T03:29:17.262Z,64.24
2023-05-12T03:30:17.412Z,64.70
2023-05-12T03:31:17.265Z,64.52
2023-05-12T03:32:17.298Z,64.36
2023-05-12T03:33:17.297Z,64.60
2023-05-12T03:34:17.303Z,64.52
2023-05-12T03:35:17.296Z,64.62
2023-05-12T03:36:17.347Z,64.57
2023-05-12T03:37:17.661Z,64.87
2023-05-12T03:38:17.337Z,65.01
2023-05-12T03:39:17.285Z,64.82
2023-05-12T03:40:17.422Z,65.05
2023-05-12T03:41:17.292Z,65.13
2023-05-12T03:42:17.691Z,65.19
2023-05-12T03:43:17.313Z,65.20
2023-05-12T03:44:17.322Z,65.25
2023-05-12T03:45:17.312Z,65.28
2023-05-12T03:46:17.377Z,65.17
2023-05-12T03:47:17.727Z,65.23
2023-05-12T03:48:17.346Z,65.67
2023-05-12T03:49:17.347Z,65.81
2023-05-12T03:50:17.429Z,65.88
2023-05-12T03:51:17.361Z,65.90
2023-05-12T03:52:17.356Z,65.79
2023-05-12T03:53:17.354Z,65.93
2023-05-12T03:54:17.344Z,65.76
2023-05-12T03:55:17.366Z,65.90
2023-05-12T03:56:17.357Z,65.52
2023-05-12T03:57:17.368Z,65.29
2023-05-12T03:58:17.362Z,65.41
2023-05-12T03:59:17.345Z,65.62
2023-05-12T04:00:17.394Z,65.40
2023-05-12T04:01:17.370Z,65.31
2023-05-12T04:02:17.692Z,65.57
2023-05-12T04:03:17.565Z,65.61
2023-05-12T04:04:17.409Z,65.33
2023-05-12T04:05:17.392Z,65.47
2023-05-12T04:06:17.363Z,65.59
2023-05-12T04:07:17.434Z,65.51
2023-05-12T04:08:17.436Z,65.59
2023-05-12T04:09:17.455Z,65.51
2023-05-12T04:10:17.480Z,65.40
2023-05-12T04:11:17.409Z,65.37
2023-05-12T04:12:17.479Z,65.10
2023-05-12T04:13:17.416Z,65.13
2023-05-12T04:14:17.498Z,65.18
2023-05-12T04:15:17.487Z,65.34
2023-05-12T04:16:17.546Z,65.29
2023-05-12T04:17:17.688Z,64.99
2023-05-12T04:18:17.520Z,65.19
2023-05-12T04:19:17.512Z,64.94
2023-05-12T04:20:17.716Z,64.55
2023-05-12T04:21:17.479Z,64.27
2023-05-12T04:22:17.666Z,64.57
2023-05-12T04:23:17.513Z,64.61
2023-05-12T04:24:17.511Z,64.67
2023-05-12T04:25:17.558Z,64.84
2023-05-12T04:26:17.519Z,65.15
2023-05-12T04:27:17.636Z,65.49
2023-05-12T04:28:17.534Z,65.61
2023-05-12T04:29:17.537Z,65.37
2023-05-12T04:30:17.616Z,65.14
2023-05-12T04:31:17.587Z,65.00
2023-05-12T04:32:17.773Z,64.91
2023-05-12T04:33:17.663Z,64.96
2023-05-12T04:34:17.525Z,65.19
2023-05-12T04:35:17.557Z,65.49
2023-05-12T04:36:17.555Z,65.67
2023-05-12T04:37:17.679Z,65.46
2023-05-12T04:38:17.655Z,65.55
2023-05-12T04:39:17.544Z,65.43
2023-05-12T04:40:17.645Z,65.21
2023-05-12T04:41:17.601Z,65.10
2023-05-12T04:42:17.608Z,64.89
2023-05-12T04:44:17.557Z,64.61
2023-05-12T04:45:17.660Z,64.50
2023-05-12T04:46:17.560Z,64.53
2023-05-12T04:47:17.537Z,64.47
2023-05-12T04:48:17.542Z,64.57
2023-05-12T04:49:17.548Z,64.40
2023-05-12T04:50:17.513Z,64.51
2023-05-12T04:51:17.513Z,64.52
2023-05-12T04:52:17.508Z,64.27
2023-05-12T04:53:17.500Z,64.56
2023-05-12T04:54:17.473Z,64.52
2023-05-12T04:55:17.526Z,64.42
2023-05-12T04:56:17.509Z,64.60
2023-05-12T04:57:17.668Z,64.73
2023-05-12T04:58:17.471Z,64.98
2023-05-12T04:59:17.489Z,64.81
2023-05-12T05:00:17.454Z,64.77
2023-05-12T05:01:17.466Z,64.48
2023-05-12T05:02:17.716Z,64.43
2023-05-12T05:03:17.598Z,64.10
2023-05-12T05:04:17.472Z,64.39
2023-05-12T05:05:17.437Z,64.37
2023-05-12T05:06:17.410Z,64.03
2023-05-12T05:07:17.677Z,63.88
2023-05-12T05:08:17.400Z,63.59
2023-05-12T05:09:17.393Z,63.47
2023-05-12T05:10:17.409Z,63.55
2023-05-12T05:11:17.403Z,63.48
2023-05-12T05:12:17.364Z,63.83
2023-05-12T05:13:17.384Z,63.55
2023-05-12T05:14:17.381Z,63.77
2023-05-12T05:15:17.534Z,63.76
2023-05-12T05:16:17.390Z,63.79
2023-05-12T05:17:17.338Z,63.77
2023-05-12T05:18:17.348Z,63.88
2023-05-12T05:19:22.842Z,63.98
2023-05-12T05:20:19.699Z,63.82
2023-05-12T05:21:17.489Z,63.60
2023-05-12T05:22:17.479Z,63.77
2023-05-12T05:23:17.486Z,63.54
2023-05-12T05:24:17.478Z,63.31
2023-05-12T05:25:17.579Z,63.47
2023-05-12T05:26:17.529Z,63.35
2023-05-12T05:27:17.534Z,63.47
2023-05-12T05:28:17.528Z,63.47
2023-05-12T05:29:17.544Z,63.52
2023-05-12T05:30:17.563Z,63.38
2023-05-12T05:31:17.641Z,63.33
2023-05-12T05:32:17.709Z,63.11
2023-05-12T05:33:17.623Z,63.11
2023-05-12T05:34:17.711Z,62.85
2023-05-12T05:35:17.961Z,62.79
2023-05-12T05:36:17.780Z,62.92
2023-05-12T05:37:18.204Z,62.93
2023-05-12T05:38:17.915Z,62.83
2023-05-12T05:39:18.024Z,62.96
2023-05-12T05:40:18.069Z,62.82
2023-05-12T05:41:18.114Z,62.94
2023-05-12T05:42:18.177Z,62.78
2023-05-12T05:43:18.216Z,62.57
2023-05-12T05:44:18.342Z,62.45
2023-05-12T05:45:18.490Z,62.33
2023-05-12T05:46:18.456Z,62.18
2023-05-12T05:47:18.449Z,61.78
2023-05-12T05:48:18.532Z,62.28
2023-05-12T05:49:18.577Z,62.42
2023-05-12T05:50:18.643Z,62.53
2023-05-12T05:51:18.681Z,62.08
2023-05-12T05:52:19.200Z,61.65
2023-05-12T05:53:19.486Z,61.60
2023-05-12T05:54:18.897Z,61.60
2023-05-12T05:55:19.378Z,61.71
2023-05-12T05:56:18.995Z,61.98
2023-05-12T05:57:19.173Z,61.79
2023-05-12T05:58:19.071Z,61.93
2023-05-12T05:59:19.150Z,61.94
2023-05-12T06:00:19.219Z,61.84
2023-05-12T06:01:19.280Z,62.03
2023-05-12T06:02:19.352Z,61.65
2023-05-12T06:03:19.561Z,61.83
2023-05-12T06:04:19.541Z,61.52
2023-05-12T06:05:19.779Z,61.01
2023-05-12T06:06:19.601Z,61.26
2023-05-12T06:07:22.003Z,61.29
2023-05-12T06:08:19.801Z,61.50
2023-05-12T06:09:19.826Z,61.87
2023-05-12T06:10:20.095Z,61.78
2023-05-12T06:11:19.935Z,61.88
2023-05-12T06:12:20.227Z,61.81
2023-05-12T06:13:20.066Z,61.61
2023-05-12T06:14:20.165Z,62.06
2023-05-12T06:15:20.482Z,62.32
2023-05-12T06:16:20.234Z,62.20
2023-05-12T06:17:20.319Z,62.32
2023-05-12T06:18:20.338Z,62.13
2023-05-12T06:19:20.339Z,62.35
2023-05-12T06:20:20.391Z,62.40
2023-05-12T06:21:20.439Z,62.22
2023-05-12T06:22:20.504Z,62.26
2023-05-12T06:23:20.510Z,62.35
2023-05-12T06:24:20.508Z,62.41
2023-05-12T06:25:20.789Z,62.17
2023-05-12T06:26:20.528Z,61.74
2023-05-12T06:27:20.603Z,63.23
2023-05-12T06:28:20.604Z,63.38
2023-05-12T06:29:20.640Z,62.82
2023-05-12T06:30:20.677Z,62.08
2023-05-12T06:31:20.755Z,61.23
2023-05-12T06:32:21.240Z,60.46
2023-05-12T06:33:20.768Z,59.69
2023-05-12T06:34:20.832Z,58.97
2023-05-12T06:35:21.082Z,58.23
2023-05-12T06:36:20.948Z,57.82
2023-05-12T06:37:21.004Z,56.99
2023-05-12T06:38:21.224Z,56.91
2023-05-12T06:39:21.059Z,56.60
2023-05-12T06:40:21.135Z,57.80
2023-05-12T06:41:21.149Z,58.00
2023-05-12T06:42:21.149Z,58.57
2023-05-12T06:43:21.227Z,58.98
2023-05-12T06:44:21.172Z,58.35
2023-05-12T06:45:21.798Z,59.01
2023-05-12T06:46:21.334Z,59.54
2023-05-12T06:47:21.353Z,60.09
2023-05-12T06:48:21.718Z,59.46
2023-05-12T06:49:21.417Z,59.55
2023-05-12T06:50:21.431Z,59.84
2023-05-12T06:51:21.381Z,60.01
2023-05-12T06:52:21.482Z,59.93
2023-05-12T06:53:24.016Z,60.19
2023-05-12T06:54:21.490Z,59.95
2023-05-12T06:55:21.785Z,60.10
2023-05-12T06:56:21.422Z,59.88
2023-05-12T06:57:21.408Z,59.35
2023-05-12T06:58:21.734Z,59.66
2023-05-12T06:59:21.505Z,59.51
2023-05-12T07:00:21.341Z,59.92
2023-05-12T07:01:21.389Z,60.21
2023-05-12T07:02:22.389Z,60.60
2023-05-12T07:03:21.737Z,60.71
2023-05-12T07:04:21.331Z,60.62
2023-05-12T07:05:21.585Z,60.46
2023-05-12T07:06:21.350Z,60.18
2023-05-12T07:07:21.312Z,60.34
2023-05-12T07:08:21.705Z,60.72
2023-05-12T07:09:21.312Z,60.90
2023-05-12T07:10:21.334Z,60.91
2023-05-12T07:11:21.337Z,60.61
2023-05-12T07:12:21.300Z,60.47
2023-05-12T07:13:21.722Z,60.56
2023-05-12T07:14:21.272Z,60.36
2023-05-12T07:15:21.546Z,60.48
2023-05-12T07:16:21.341Z,60.53
2023-05-12T07:17:21.301Z,60.25
2023-05-12T07:18:21.773Z,59.74
2023-05-12T07:19:21.299Z,59.72
2023-05-12T07:20:21.363Z,60.06
2023-05-12T07:21:21.428Z,59.89
2023-05-12T07:22:21.536Z,59.62
2023-05-12T07:23:21.566Z,59.53
2023-05-12T07:24:21.628Z,59.42
2023-05-12T07:25:21.949Z,59.04
2023-05-12T07:26:21.708Z,59.10
2023-05-12T07:27:21.765Z,59.43
2023-05-12T07:28:22.218Z,59.27
2023-05-12T07:29:21.888Z,58.93
2023-05-12T07:30:21.934Z,58.33
2023-05-12T07:31:22.038Z,58.27
2023-05-12T07:32:21.987Z,58.01
2023-05-12T07:33:22.231Z,57.80
2023-05-12T07:34:22.044Z,57.74
2023-05-12T07:35:22.252Z,57.94
2023-05-12T07:36:22.265Z,57.39
2023-05-12T07:37:22.066Z,57.75
2023-05-12T07:38:22.073Z,57.83
2023-05-12T07:39:22.135Z,57.77
2023-05-12T07:40:22.213Z,57.50
2023-05-12T07:41:22.337Z,57.67
2023-05-12T07:42:22.446Z,57.83
2023-05-12T07:43:22.139Z,57.56
2023-05-12T07:44:22.115Z,57.51
2023-05-12T07:45:22.177Z,57.45
2023-05-12T07:46:22.206Z,57.25
2023-05-12T07:47:22.141Z,57.35
2023-05-12T07:48:22.226Z,57.31
2023-05-12T07:49:22.159Z,57.36
2023-05-12T07:50:22.226Z,57.04
2023-05-12T07:51:22.202Z,56.36
2023-05-12T07:52:22.247Z,56.15
2023-05-12T07:53:22.724Z,56.53
2023-05-12T07:54:22.296Z,56.72
2023-05-12T07:55:22.502Z,56.41
2023-05-12T07:56:22.382Z,55.86
2023-05-12T07:57:22.388Z,55.63
2023-05-12T07:58:22.778Z,55.68
2023-05-12T07:59:22.469Z,55.15
2023-05-12T08:00:22.546Z,55.22
2023-05-12T08:01:22.601Z,55.14
2023-05-12T08:02:22.677Z,55.64
2023-05-12T08:03:22.775Z,55.32
2023-05-12T08:04:22.781Z,54.62
2023-05-12T08:05:22.848Z,53.85
2023-05-12T08:06:22.812Z,54.25
2023-05-12T08:07:22.858Z,54.59
2023-05-12T08:08:23.268Z,53.48
2023-05-12T08:09:22.920Z,53.66
2023-05-12T08:10:22.970Z,53.72
2023-05-12T08:11:22.944Z,53.04
2023-05-12T08:12:22.952Z,52.87
2023-05-12T08:13:22.995Z,53.50
2023-05-12T08:14:23.012Z,53.18
2023-05-12T08:15:23.712Z,52.77
2023-05-12T08:16:23.053Z,53.36
2023-05-12T08:17:23.070Z,52.91
2023-05-12T08:18:23.267Z,54.22
2023-05-12T08:19:22.999Z,54.16
2023-05-12T08:20:23.196Z,52.85
2023-05-12T08:21:23.064Z,53.06
2023-05-12T08:22:23.099Z,53.03
2023-05-12T08:23:23.718Z,54.63
2023-05-12T08:24:23.398Z,55.14
2023-05-12T08:25:23.191Z,54.20
2023-05-12T08:26:23.210Z,53.79
2023-05-12T08:27:23.149Z,54.01
2023-05-12T08:28:23.152Z,53.45
2023-05-12T08:29:23.151Z,53.64
2023-05-12T08:30:23.193Z,53.80
2023-05-12T08:31:23.191Z,53.94
2023-05-12T08:32:23.172Z,54.26
2023-05-12T08:33:23.236Z,54.21
2023-05-12T08:34:23.269Z,54.37
2023-05-12T08:35:23.287Z,54.09
2023-05-12T08:36:23.395Z,54.14
2023-05-12T08:37:23.426Z,55.08
2023-05-12T08:38:23.478Z,53.29
2023-05-12T08:39:23.513Z,53.15
2023-05-12T08:40:23.684Z,53.75
2023-05-12T08:41:23.635Z,53.66
2023-05-12T08:42:23.704Z,53.56
2023-05-12T08:43:23.732Z,54.01
2023-05-12T08:44:23.855Z,52.40
2023-05-12T08:45:23.911Z,52.70
2023-05-12T08:46:24.093Z,52.40
2023-05-12T08:47:23.955Z,53.61
2023-05-12T08:48:24.002Z,53.90
2023-05-12T08:49:24.016Z,53.33
2023-05-12T08:50:24.103Z,53.32
2023-05-12T08:51:24.208Z,53.55
2023-05-12T08:52:24.191Z,52.97
2023-05-12T08:53:24.212Z,53.46
2023-05-12T08:54:24.277Z,52.79
2023-05-12T08:55:28.541Z,53.26
2023-05-12T08:57:24.323Z,53.28
2023-05-12T08:58:33.979Z,52.96
2023-05-12T08:59:25.317Z,52.80
2023-05-12T09:00:24.377Z,53.25
2023-05-12T09:01:24.353Z,52.59
2023-05-12T09:02:24.629Z,52.39
2023-05-12T09:03:24.801Z,52.84
2023-05-12T09:04:24.360Z,52.95
2023-05-12T09:05:24.304Z,52.74
2023-05-12T09:06:24.306Z,53.72
2023-05-12T09:07:24.252Z,52.53
2023-05-12T09:08:24.250Z,52.94
2023-05-12T09:09:24.257Z,54.03
2023-05-12T09:11:24.260Z,53.55
2023-05-12T09:12:24.220Z,52.98
2023-05-12T09:13:24.251Z,52.42
2023-05-12T09:14:24.183Z,52.49
2023-05-12T09:15:24.195Z,52.29
2023-05-12T09:16:24.258Z,52.21
2023-05-12T09:17:24.235Z,52.01
2023-05-12T09:18:24.177Z,52.44
2023-05-12T09:19:24.175Z,53.41
2023-05-12T09:21:25.195Z,53.36
2023-05-12T09:22:24.177Z,52.98
2023-05-12T09:23:24.255Z,52.85
2023-05-12T09:24:24.230Z,52.92
2023-05-12T09:25:24.170Z,52.50
2023-05-12T09:26:24.110Z,52.37
2023-05-12T09:27:24.140Z,51.22
2023-05-12T09:28:24.119Z,51.18
2023-05-12T09:29:31.821Z,51.44
2023-05-12T09:30:25.101Z,52.30
2023-05-12T09:31:24.082Z,51.85
2023-05-12T09:32:24.094Z,52.01
2023-05-12T09:33:24.084Z,52.27
2023-05-12T09:34:24.227Z,52.62
2023-05-12T09:35:24.083Z,52.81
2023-05-12T09:36:24.030Z,51.94
2023-05-12T09:37:24.034Z,52.65
2023-05-12T09:38:24.042Z,52.83
2023-05-12T09:39:24.038Z,51.66
2023-05-12T09:40:25.025Z,51.55
2023-05-12T09:41:24.103Z,51.61
2023-05-12T09:42:24.139Z,52.51
2023-05-12T09:43:24.177Z,51.89
2023-05-12T09:44:24.300Z,52.07
2023-05-12T09:45:24.474Z,53.00
2023-05-12T09:46:24.510Z,50.86
2023-05-12T09:47:24.307Z,51.74
2023-05-12T09:48:26.191Z,51.81
2023-05-12T09:49:24.744Z,52.35
2023-05-12T09:50:24.269Z,51.66
2023-05-12T09:51:24.301Z,51.42
2023-05-12T09:52:24.257Z,51.18
2023-05-12T09:53:24.226Z,52.18
2023-05-12T09:54:24.241Z,52.68
2023-05-12T09:55:24.255Z,52.73
2023-05-12T09:56:24.212Z,52.33
2023-05-12T09:57:24.209Z,52.14
2023-05-12T09:58:24.184Z,52.66
2023-05-12T09:59:24.191Z,51.88
2023-05-12T10:00:37.035Z,52.36
2023-05-12T10:01:25.352Z,52.38
2023-05-12T10:02:24.302Z,51.85
2023-05-12T10:03:24.147Z,51.96
2023-05-12T10:04:24.289Z,51.91
2023-05-12T10:05:24.212Z,51.63
2023-05-12T10:06:24.162Z,50.94
2023-05-12T10:07:24.102Z,51.06
2023-05-12T10:08:24.128Z,50.94
2023-05-12T10:09:24.285Z,51.16
2023-05-12T10:10:24.122Z,50.85
2023-05-12T10:11:24.114Z,51.44
2023-05-12T10:12:24.160Z,51.32
2023-05-12T10:13:24.177Z,51.86
2023-05-12T10:14:24.273Z,51.81
2023-05-12T10:15:24.274Z,51.89
2023-05-12T10:16:24.311Z,51.66
2023-05-12T10:17:24.401Z,51.24
2023-05-12T10:18:24.489Z,51.34
2023-05-12T10:19:24.484Z,51.81
2023-05-12T10:20:24.530Z,51.71
2023-05-12T10:21:24.566Z,51.08
2023-05-12T10:22:24.639Z,51.17
2023-05-12T10:23:24.697Z,51.30
2023-05-12T10:24:24.795Z,52.06
2023-05-12T10:25:24.752Z,51.91
2023-05-12T10:26:24.762Z,51.67
2023-05-12T10:27:24.787Z,51.86
2023-05-12T10:28:24.844Z,52.38
2023-05-12T10:29:24.869Z,51.71
2023-05-12T10:30:24.934Z,52.12
2023-05-12T10:31:24.970Z,52.09
2023-05-12T10:32:24.935Z,51.79
2023-05-12T10:33:25.058Z,51.89
2023-05-12T10:34:25.275Z,51.67
2023-05-12T10:35:25.024Z,51.80
2023-05-12T10:36:25.032Z,51.98
2023-05-12T10:37:25.014Z,52.17
2023-05-12T10:38:24.999Z,51.73
2023-05-12T10:39:25.300Z,51.87
2023-05-12T10:40:25.009Z,52.40
2023-05-12T10:41:25.019Z,52.14
2023-05-12T10:42:25.046Z,52.32
2023-05-12T10:43:25.000Z,51.92
2023-05-12T10:44:25.002Z,52.05
2023-05-12T10:45:25.066Z,51.69
2023-05-12T10:46:25.101Z,51.69
2023-05-12T10:47:25.065Z,51.74
2023-05-12T10:48:25.020Z,52.44
2023-05-12T10:49:25.094Z,52.29
2023-05-12T10:50:25.021Z,52.65
2023-05-12T10:51:25.026Z,51.30
2023-05-12T10:52:25.015Z,50.92
2023-05-12T10:53:28.616Z,50.91
2023-05-12T10:54:26.043Z,50.00
2023-05-12T10:55:25.339Z,50.43
2023-05-12T10:56:25.387Z,49.88
2023-05-12T10:57:25.210Z,50.45
2023-05-12T10:58:25.313Z,49.33
2023-05-12T10:59:25.588Z,49.46
2023-05-12T11:00:25.778Z,49.37
2023-05-12T11:01:25.430Z,49.28
2023-05-12T11:02:26.087Z,49.53
2023-05-12T11:03:25.603Z,50.20
2023-05-12T11:04:25.174Z,49.61
2023-05-12T11:05:25.377Z,49.17
2023-05-12T11:06:25.660Z,49.43
2023-05-12T11:07:25.276Z,49.05
2023-05-12T11:08:25.357Z,48.70
2023-05-12T11:09:25.430Z,47.85
2023-05-12T11:10:26.604Z,47.51
2023-05-12T11:11:26.392Z,47.22
2023-05-12T11:12:25.386Z,46.75
2023-05-12T11:13:25.397Z,46.63
2023-05-12T11:14:25.493Z,47.19
2023-05-12T11:15:25.514Z,47.40
2023-05-12T11:16:25.546Z,48.00
2023-05-12T11:17:25.686Z,47.00
2023-05-12T11:18:25.627Z,47.48
2023-05-12T11:19:25.682Z,47.76
2023-05-12T11:20:26.143Z,46.69
2023-05-12T11:21:25.766Z,47.21
2023-05-12T11:22:25.803Z,47.25
2023-05-12T11:23:25.880Z,47.07
2023-05-12T11:24:25.947Z,46.88
2023-05-12T11:25:25.962Z,47.34
2023-05-12T11:26:26.027Z,46.84
2023-05-12T11:27:26.026Z,47.16
2023-05-12T11:28:26.070Z,46.89
2023-05-12T11:29:26.076Z,46.55
2023-05-12T11:30:26.106Z,46.29
2023-05-12T11:31:26.240Z,46.54
2023-05-12T11:32:26.211Z,46.20
2023-05-12T11:33:26.131Z,46.59
2023-05-12T11:34:26.303Z,46.38
2023-05-12T11:35:26.136Z,46.43
2023-05-12T11:36:26.136Z,46.16
2023-05-12T11:37:26.241Z,46.45
2023-05-12T11:38:26.203Z,46.31
2023-05-12T11:39:26.159Z,47.80
2023-05-12T11:40:26.189Z,47.64
2023-05-12T11:41:26.201Z,46.83
2023-05-12T11:42:26.273Z,46.47
2023-05-12T11:43:26.259Z,45.97
2023-05-12T11:44:26.809Z,45.00
2023-05-12T11:45:26.376Z,44.80
2023-05-12T11:46:26.633Z,45.15
2023-05-12T11:47:26.575Z,44.66
2023-05-12T11:48:26.568Z,44.38
2023-05-12T11:49:26.666Z,44.99
2023-05-12T11:50:26.660Z,44.09
2023-05-12T11:51:26.729Z,44.65
2023-05-12T11:52:26.759Z,44.83
2023-05-12T11:53:27.800Z,44.40
2023-05-12T11:54:26.917Z,44.33
2023-05-12T11:55:26.970Z,43.72
2023-05-12T11:56:27.010Z,43.84
2023-05-12T11:57:27.078Z,43.17
2023-05-12T11:58:27.219Z,43.85
2023-05-12T11:59:27.202Z,42.16
2023-05-12T12:00:27.253Z,42.68
2023-05-12T12:01:27.316Z,43.39
2023-05-12T12:02:27.475Z,43.27
2023-05-12T12:03:27.479Z,43.92
2023-05-12T12:04:27.515Z,43.60
2023-05-12T12:05:27.493Z,42.77
2023-05-12T12:06:27.601Z,42.36
2023-05-12T12:07:27.585Z,42.36
2023-05-12T12:08:27.644Z,43.07
2023-05-12T12:09:27.718Z,43.07
2023-05-12T12:10:27.792Z,42.84
2023-05-12T12:11:27.792Z,42.22
2023-05-12T12:12:27.831Z,42.51
2023-05-12T12:13:27.849Z,41.95
2023-05-12T12:14:28.326Z,42.56
2023-05-12T12:15:27.965Z,43.14
2023-05-12T12:16:28.122Z,43.21
2023-05-12T12:17:28.115Z,42.43
2023-05-12T12:18:28.200Z,43.02
2023-05-12T12:19:28.217Z,42.35
2023-05-12T12:20:28.202Z,42.87
2023-05-12T12:21:28.280Z,43.00
2023-05-12T12:22:28.422Z,43.43
2023-05-12T12:23:30.386Z,42.47
2023-05-12T12:24:29.414Z,42.84
2023-05-12T12:25:28.408Z,42.48
2023-05-12T12:26:28.354Z,42.44
2023-05-12T12:27:28.342Z,42.30
2023-05-12T12:28:28.324Z,41.06
2023-05-12T12:29:28.362Z,40.31
2023-05-12T12:30:28.847Z,40.86
2023-05-12T12:31:28.411Z,40.87
2023-05-12T12:32:28.348Z,41.71
2023-05-12T12:33:28.311Z,41.60
2023-05-12T12:34:28.284Z,41.81
2023-05-12T12:35:28.309Z,41.20
2023-05-12T12:36:28.281Z,40.88
2023-05-12T12:37:28.261Z,41.29
2023-05-12T12:38:28.353Z,41.03
2023-05-12T12:39:28.305Z,41.39
2023-05-12T12:40:28.329Z,41.36
2023-05-12T12:41:28.234Z,41.62
2023-05-12T12:42:28.235Z,42.52
2023-05-12T12:43:28.252Z,41.74
2023-05-12T12:44:28.333Z,41.55
2023-05-12T12:45:28.855Z,41.70
2023-05-12T12:46:28.461Z,41.59
2023-05-12T12:47:28.502Z,41.98
2023-05-12T12:48:28.475Z,42.47
2023-05-12T12:49:28.475Z,41.30
2023-05-12T12:50:28.893Z,40.90
2023-05-12T12:51:38.542Z,40.92
2023-05-12T12:52:29.508Z,40.22
2023-05-12T12:53:28.476Z,40.42
2023-05-12T12:54:28.489Z,40.38
2023-05-12T12:55:28.463Z,39.93
2023-05-12T12:56:28.439Z,41.11